Time;durP1;ratioP1;P1;durP2;ratioP2;P2;SDS_P1;SDS_P2;PMS_P1;PMS_P2;Temp;Humidity;BMP_temperature;BMP_pressure;BME280_temperature;BME280_humidity;BME280_pressure;Samples;Min_cycle;Max_cycle;Signal;HPM_P1;HPM_P2
2022/02/19 00:01:04;;;;;;;3.10;1.77;;;9.00;95.40;;;;;;5071591;28;20441;-47
2022/02/19 00:03:31;;;;;;;2.77;1.20;;;9.00;95.20;;;;;;5073600;28;20457;-45
2022/02/19 00:05:58;;;;;;;6.43;1.77;;;9.00;94.80;;;;;;5076128;28;20420;-45
2022/02/19 00:08:26;;;;;;;2.50;1.63;;;9.10;94.60;;;;;;5075264;28;20459;-45
2022/02/19 00:10:52;;;;;;;8.10;2.23;;;9.10;94.40;;;;;;5075697;28;20435;-44
2022/02/19 00:13:19;;;;;;;5.17;2.13;;;9.10;94.30;;;;;;5075853;28;20424;-45
2022/02/19 00:15:47;;;;;;;11.63;2.30;;;9.10;93.90;;;;;;5076016;28;20430;-45
2022/02/19 00:18:13;;;;;;;3.70;1.50;;;9.10;93.50;;;;;;5075746;28;20404;-45
2022/02/19 00:20:43;;;;;;;6.40;1.80;;;9.10;93.60;;;;;;5074069;28;20419;-45
2022/02/19 00:23:10;;;;;;;4.13;2.00;;;9.10;93.50;;;;;;5074612;28;20959;-45
2022/02/19 00:25:38;;;;;;;7.30;1.57;;;9.10;93.50;;;;;;5074771;28;20416;-44
2022/02/19 00:28:04;;;;;;;5.27;1.57;;;9.10;93.50;;;;;;5074516;28;20513;-44
2022/02/19 00:30:31;;;;;;;4.57;1.90;;;9.10;93.60;;;;;;5074122;28;20852;-45
2022/02/19 00:32:59;;;;;;;5.70;1.67;;;9.10;94.00;;;;;;5073222;28;20440;-45
2022/02/19 00:35:28;;;;;;;4.43;1.37;;;9.00;93.70;;;;;;5074324;28;20520;-45
2022/02/19 00:37:55;;;;;;;4.33;1.50;;;9.00;93.80;;;;;;5074482;28;20415;-45
2022/02/19 00:40:22;;;;;;;5.60;1.63;;;8.90;93.50;;;;;;5072808;28;20456;-45
2022/02/19 00:42:49;;;;;;;5.20;1.90;;;9.00;93.90;;;;;;5074300;28;20484;-45
2022/02/19 00:45:16;;;;;;;3.90;1.50;;;9.00;93.80;;;;;;5073056;28;20793;-45
2022/02/19 00:47:44;;;;;;;9.50;2.20;;;9.00;93.70;;;;;;5072738;28;20469;-45
2022/02/19 00:50:11;;;;;;;3.03;1.53;;;9.00;93.70;;;;;;5076047;28;20425;-45
2022/02/19 00:52:39;;;;;;;4.03;1.77;;;9.00;93.50;;;;;;5075076;28;20458;-44
2022/02/19 00:55:07;;;;;;;7.03;2.27;;;8.90;93.60;;;;;;5073004;28;20499;-44
2022/02/19 00:57:33;;;;;;;3.63;1.80;;;9.20;93.60;;;;;;5073130;28;20434;-44
2022/02/19 01:00:01;;;;;;;6.60;2.07;;;8.90;93.30;;;;;;5072223;28;20469;-45
2022/02/19 01:02:29;;;;;;;9.70;2.80;;;8.90;93.30;;;;;;5072553;28;20523;-44
2022/02/19 01:05:05;;;;;;;8.90;2.17;;;8.90;92.70;;;;;;5073842;28;20837;-44
2022/02/19 01:07:32;;;;;;;13.17;3.20;;;8.90;92.50;;;;;;5073943;28;20470;-44
2022/02/19 01:09:58;;;;;;;6.77;1.80;;;8.90;92.30;;;;;;5072239;28;20445;-45
2022/02/19 01:12:25;;;;;;;11.13;2.90;;;8.90;92.50;;;;;;5074189;28;20432;-44
2022/02/19 01:14:52;;;;;;;8.60;3.17;;;8.90;92.10;;;;;;5074211;28;20882;-47
2022/02/19 01:17:20;;;;;;;8.17;1.97;;;8.90;91.90;;;;;;5073548;28;20767;-44
2022/02/19 01:19:47;;;;;;;5.73;1.97;;;8.90;91.20;;;;;;5073261;28;20865;-44
2022/02/19 01:22:13;;;;;;;7.27;1.80;;;8.90;91.10;;;;;;5073564;28;20445;-44
2022/02/19 01:24:40;;;;;;;7.97;2.10;;;8.90;91.10;;;;;;5073736;28;20413;-45
2022/02/19 01:27:07;;;;;;;6.07;1.80;;;8.80;90.70;;;;;;5072194;28;20460;-44
2022/02/19 01:29:38;;;;;;;7.93;2.07;;;8.90;90.60;;;;;;5072134;28;20829;-45
2022/02/19 01:32:06;;;;;;;6.83;1.90;;;8.80;90.50;;;;;;5072251;28;20531;-44
2022/02/19 01:34:34;;;;;;;7.63;2.20;;;8.90;90.80;;;;;;5072203;28;20464;-44
2022/02/19 01:37:01;;;;;;;7.80;2.27;;;8.80;90.10;;;;;;5073478;28;20441;-44
2022/02/19 01:39:30;;;;;;;10.00;2.30;;;8.90;90.00;;;;;;5071647;28;20460;-45
2022/02/19 01:41:59;;;;;;;7.63;2.33;;;8.90;89.50;;;;;;5071780;28;20424;-44
2022/02/19 01:44:34;;;;;;;7.27;2.73;;;8.90;88.60;;;;;;5073356;28;20515;-44
2022/02/19 01:47:02;;;;;;;10.97;2.30;;;8.90;87.10;;;;;;5071781;28;20424;-43
2022/02/19 01:49:29;;;;;;;14.47;2.83;;;8.80;86.10;;;;;;5071595;28;20450;-46
2022/02/19 01:51:57;;;;;;;10.33;2.60;;;8.80;86.20;;;;;;5071884;28;20453;-44
2022/02/19 01:54:25;;;;;;;4.53;2.00;;;8.80;85.70;;;;;;5071656;28;20487;-46
2022/02/19 01:57:06;;;;;;;8.20;2.40;;;8.80;85.20;;;;;;5071787;28;20416;-46
2022/02/19 01:59:52;;;;;;;11.20;2.83;;;8.80;85.60;;;;;;5071694;28;20860;-44
2022/02/19 02:02:41;;;;;;;9.27;2.40;;;8.80;84.10;;;;;;5052602;28;20448;-44
2022/02/19 02:05:26;;;;;;;4.60;2.43;;;8.80;84.10;;;;;;5053269;28;20550;-45
2022/02/19 02:07:55;;;;;;;8.90;2.53;;;8.80;83.40;;;;;;5051686;28;21052;-45
2022/02/19 02:10:22;;;;;;;9.30;3.17;;;8.60;82.90;;;;;;5050915;28;20494;-44
2022/02/19 02:12:49;;;;;;;9.13;2.60;;;8.80;82.80;;;;;;5051283;28;20493;-45
2022/02/19 02:15:24;;;;;;;5.77;2.60;;;8.80;82.80;;;;;;5051471;28;20462;-45
2022/02/19 02:18:02;;;;;;;7.73;2.30;;;8.80;81.70;;;;;;5051323;28;20429;-45
2022/02/19 02:20:29;;;;;;;9.77;2.60;;;8.70;81.60;;;;;;5051259;28;20994;-44
2022/02/19 02:22:58;;;;;;;8.77;2.30;;;8.70;81.40;;;;;;5051219;28;20451;-44
2022/02/19 02:25:27;;;;;;;10.73;3.10;;;8.70;81.40;;;;;;5050695;28;20508;-43
2022/02/19 02:27:54;;;;;;;5.17;2.17;;;8.60;81.80;;;;;;5050876;28;20470;-44
2022/02/19 02:30:21;;;;;;;10.03;2.50;;;8.60;81.10;;;;;;5050664;28;20839;-44
2022/02/19 02:32:53;;;;;;;6.90;2.53;;;8.40;80.40;;;;;;5051340;28;20802;-44
2022/02/19 02:35:20;;;;;;;8.50;2.87;;;8.60;80.60;;;;;;5070685;28;20857;-44
2022/02/19 02:37:48;;;;;;;10.77;2.90;;;8.50;79.40;;;;;;5071323;28;20966;-44
2022/02/19 02:40:17;;;;;;;6.77;2.60;;;8.50;80.10;;;;;;5070619;28;20415;-44
2022/02/19 02:42:44;;;;;;;6.87;2.27;;;8.40;79.10;;;;;;5070578;28;20455;-44
2022/02/19 02:45:13;;;;;;;10.50;4.23;;;8.40;78.80;;;;;;5070880;28;20532;-44
2022/02/19 02:47:43;;;;;;;11.20;2.67;;;8.50;79.20;;;;;;5072200;28;20436;-44
2022/02/19 02:50:11;;;;;;;13.90;2.73;;;8.30;78.60;;;;;;5070436;28;20416;-44
2022/02/19 02:52:40;;;;;;;8.43;2.43;;;8.60;78.20;;;;;;5071711;28;20556;-44
2022/02/19 02:55:10;;;;;;;7.03;2.33;;;8.60;78.30;;;;;;5071895;28;20518;-45
2022/02/19 02:57:39;;;;;;;8.60;2.20;;;8.60;78.00;;;;;;5070866;28;20490;-44
2022/02/19 03:00:08;;;;;;;4.47;2.20;;;8.60;77.60;;;;;;5071744;28;20454;-44
2022/02/19 03:02:37;;;;;;;7.07;2.00;;;8.60;76.30;;;;;;5070993;28;20488;-45
2022/02/19 03:05:09;;;;;;;5.57;1.93;;;8.50;77.10;;;;;;5070829;28;20449;-44
2022/02/19 03:07:36;;;;;;;6.47;1.90;;;8.50;76.20;;;;;;5071826;28;20404;-44
2022/02/19 03:10:07;;;;;;;7.77;2.03;;;8.50;77.00;;;;;;5070498;28;20905;-44
2022/02/19 03:12:35;;;;;;;11.90;2.53;;;8.50;76.70;;;;;;5070725;28;20494;-44
2022/02/19 03:15:05;;;;;;;6.10;1.90;;;8.40;77.10;;;;;;5070818;28;20420;-43
2022/02/19 03:17:36;;;;;;;7.20;2.37;;;8.40;77.00;;;;;;5071024;28;20824;-45
2022/02/19 03:20:04;;;;;;;9.73;2.40;;;8.30;76.40;;;;;;5071448;28;20436;-45
2022/02/19 03:22:31;;;;;;;12.93;2.87;;;8.30;76.70;;;;;;5071913;28;20881;-44
2022/02/19 03:24:57;;;;;;;10.30;2.40;;;8.30;76.00;;;;;;5070834;28;20466;-46
2022/02/19 03:27:26;;;;;;;4.00;2.00;;;8.30;76.40;;;;;;5070612;28;20421;-45
2022/02/19 03:29:54;;;;;;;5.43;1.70;;;8.40;77.10;;;;;;5070502;28;20449;-45
2022/02/19 03:32:22;;;;;;;7.73;2.23;;;8.40;76.70;;;;;;5070675;28;20523;-44
2022/02/19 03:34:49;;;;;;;6.10;1.90;;;8.40;76.20;;;;;;5070509;28;20495;-45
2022/02/19 03:37:16;;;;;;;5.00;1.90;;;8.50;76.20;;;;;;5071505;28;20536;-44
2022/02/19 03:39:43;;;;;;;9.43;2.20;;;8.40;76.20;;;;;;5074895;28;20477;-44
2022/02/19 03:42:10;;;;;;;4.80;2.10;;;8.40;76.40;;;;;;5076347;28;20482;-45
2022/02/19 03:44:36;;;;;;;7.07;2.87;;;8.50;76.80;;;;;;5074943;28;20917;-45
2022/02/19 03:47:11;;;;;;;5.40;1.73;;;8.50;76.70;;;;;;5074798;28;20473;-44
2022/02/19 03:49:50;;;;;;;4.20;1.80;;;8.50;76.60;;;;;;5074385;28;20481;-45
2022/02/19 03:52:17;;;;;;;8.67;2.40;;;8.20;75.80;;;;;;5075501;28;20485;-45
2022/02/19 03:54:44;;;;;;;6.47;2.30;;;8.40;76.60;;;;;;5075522;28;20416;-44
2022/02/19 03:57:11;;;;;;;5.27;1.63;;;8.40;76.00;;;;;;5075431;28;20454;-45
2022/02/19 03:59:38;;;;;;;6.30;2.00;;;8.40;76.20;;;;;;5076154;28;20427;-45
2022/02/19 04:02:05;;;;;;;5.83;2.00;;;8.30;76.40;;;;;;5072623;28;20977;-44
2022/02/19 04:04:33;;;;;;;3.17;1.80;;;8.40;76.70;;;;;;5056251;28;20537;-44
2022/02/19 04:07:01;;;;;;;7.33;2.30;;;8.40;76.30;;;;;;5055353;28;20447;-44
2022/02/19 04:09:46;;;;;;;14.83;2.10;;;8.40;76.80;;;;;;5056715;28;20477;-45
2022/02/19 04:12:13;;;;;;;8.90;1.93;;;8.40;77.10;;;;;;5054929;28;20448;-44
2022/02/19 04:14:41;;;;;;;7.43;2.17;;;8.40;77.00;;;;;;5053948;28;20945;-45
2022/02/19 04:17:07;;;;;;;5.43;2.00;;;8.40;77.50;;;;;;5055248;28;20410;-45
2022/02/19 04:19:35;;;;;;;5.73;2.50;;;8.40;77.90;;;;;;5053346;28;20821;-45
2022/02/19 04:22:03;;;;;;;7.50;1.97;;;8.40;78.10;;;;;;5053708;28;20417;-45
2022/02/19 04:24:30;;;;;;;7.30;2.20;;;8.40;78.20;;;;;;5053688;28;20797;-45
2022/02/19 04:27:04;;;;;;;7.50;2.00;;;8.40;78.40;;;;;;5054184;28;20495;-45
2022/02/19 04:29:32;;;;;;;6.37;2.20;;;8.40;78.90;;;;;;5053191;28;20530;-45
2022/02/19 04:32:02;;;;;;;5.80;2.00;;;8.40;79.60;;;;;;5053962;28;20421;-44
2022/02/19 04:34:45;;;;;;;7.03;2.20;;;8.40;81.10;;;;;;5067018;28;20451;-44
2022/02/19 04:37:13;;;;;;;7.13;1.90;;;8.30;82.60;;;;;;5073720;28;20480;-46
2022/02/19 04:39:42;;;;;;;7.50;2.13;;;8.30;84.00;;;;;;5074091;28;20475;-47
2022/02/19 04:42:17;;;;;;;6.00;2.03;;;8.30;84.60;;;;;;5073790;28;20881;-48
2022/02/19 04:44:44;;;;;;;6.23;1.90;;;8.30;85.40;;;;;;5074075;28;21011;-43
2022/02/19 04:47:11;;;;;;;4.43;1.70;;;8.30;86.00;;;;;;5073160;28;20579;-44
2022/02/19 04:49:38;;;;;;;7.33;2.20;;;8.30;86.80;;;;;;5073207;28;20477;-42
2022/02/19 04:52:05;;;;;;;11.57;2.60;;;8.40;88.30;;;;;;5074320;28;20419;-42
2022/02/19 04:54:36;;;;;;;3.00;2.00;;;8.30;89.10;;;;;;5072999;28;20450;-42
2022/02/19 04:57:02;;;;;;;9.40;2.07;;;8.30;89.60;;;;;;5074438;28;20446;-42
2022/02/19 04:59:31;;;;;;;5.80;2.43;;;8.30;89.80;;;;;;5072491;28;20816;-42
2022/02/19 05:01:59;;;;;;;11.07;2.40;;;8.20;89.90;;;;;;5069354;28;20425;-43
2022/02/19 05:04:39;;;;;;;4.30;2.37;;;8.20;90.10;;;;;;5052962;28;20461;-43
2022/02/19 05:07:11;;;;;;;7.37;2.03;;;8.30;90.20;;;;;;5054033;28;20842;-42
2022/02/19 05:09:42;;;;;;;6.43;2.10;;;8.20;90.30;;;;;;5052169;28;20489;-42
2022/02/19 05:12:12;;;;;;;5.43;2.00;;;8.20;90.50;;;;;;5053742;28;20422;-42
2022/02/19 05:14:42;;;;;;;5.57;1.93;;;8.20;90.60;;;;;;5052580;28;20490;-42
2022/02/19 05:17:19;;;;;;;10.37;2.40;;;8.10;90.80;;;;;;5052564;28;20421;-43
2022/02/19 05:19:51;;;;;;;7.47;3.30;;;8.10;90.80;;;;;;5052089;28;21008;-43
2022/02/19 05:22:18;;;;;;;3.63;2.30;;;7.90;90.80;;;;;;5053728;28;20416;-43
2022/02/19 05:24:50;;;;;;;9.20;2.43;;;8.10;91.00;;;;;;5052283;28;20454;-44
2022/02/19 05:27:20;;;;;;;9.63;2.43;;;8.10;91.00;;;;;;5052335;28;20486;-43
2022/02/19 05:29:49;;;;;;;4.40;2.30;;;8.10;91.10;;;;;;5051783;28;20478;-43
2022/02/19 05:32:17;;;;;;;6.63;2.43;;;8.10;91.30;;;;;;5052320;28;20439;-42
2022/02/19 05:35:06;;;;;;;12.00;2.50;;;8.10;91.40;;;;;;5068532;28;20535;-43
2022/02/19 05:37:35;;;;;;;4.20;2.40;;;8.10;91.40;;;;;;5072574;28;20460;-43
2022/02/19 05:40:05;;;;;;;8.83;2.13;;;8.10;91.50;;;;;;5071821;28;20445;-43
2022/02/19 05:42:32;;;;;;;7.13;2.03;;;8.00;91.60;;;;;;5071786;28;20451;-46
2022/02/19 05:45:18;;;;;;;5.13;2.13;;;8.00;91.70;;;;;;5073356;28;20926;-42
2022/02/19 05:47:47;;;;;;;5.77;2.40;;;8.00;91.80;;;;;;5071950;28;20432;-42
2022/02/19 05:50:41;;;;;;;5.40;1.70;;;8.00;91.90;;;;;;5071580;28;20943;-43
2022/02/19 05:53:26;;;;;;;6.03;2.10;;;7.90;92.20;;;;;;5073247;28;20958;-43
2022/02/19 05:55:54;;;;;;;7.23;3.30;;;8.00;92.50;;;;;;5071660;28;20420;-43
2022/02/19 05:58:21;;;;;;;3.50;1.67;;;7.90;92.60;;;;;;5071290;28;20806;-44
2022/02/19 06:01:01;;;;;;;3.70;1.73;;;7.90;92.70;;;;;;5067549;28;20465;-42
2022/02/19 06:03:28;;;;;;;12.90;2.73;;;7.90;93.00;;;;;;5051758;28;20448;-42
2022/02/19 06:05:54;;;;;;;6.47;2.10;;;7.90;93.10;;;;;;5051597;28;20443;-45
2022/02/19 06:08:23;;;;;;;3.20;2.33;;;7.90;93.30;;;;;;5051085;28;20421;-44
2022/02/19 06:10:49;;;;;;;5.37;1.90;;;7.90;93.50;;;;;;5051457;28;20468;-43
2022/02/19 06:13:20;;;;;;;5.73;1.93;;;7.90;93.60;;;;;;5051528;28;20917;-44
2022/02/19 06:15:49;;;;;;;8.77;1.90;;;7.90;93.70;;;;;;5051247;28;20493;-44
2022/02/19 06:18:46;;;;;;;5.83;1.90;;;7.90;93.90;;;;;;5043118;28;20417;-41
2022/02/19 06:21:13;;;;;;;4.23;1.60;;;7.90;94.10;;;;;;5051398;28;20556;-41
2022/02/19 06:23:40;;;;;;;5.87;2.30;;;7.80;94.30;;;;;;5050951;28;20465;-41
2022/02/19 06:26:07;;;;;;;6.57;1.90;;;7.80;94.70;;;;;;5051152;28;20425;-44
2022/02/19 06:28:41;;;;;;;4.80;1.90;;;7.70;94.70;;;;;;5050699;28;20428;-43
2022/02/19 06:31:07;;;;;;;6.10;1.90;;;7.70;94.90;;;;;;5051309;28;20428;-43
2022/02/19 06:33:34;;;;;;;6.63;2.43;;;7.60;95.10;;;;;;5054511;28;20799;-43
2022/02/19 06:36:05;;;;;;;11.87;2.30;;;7.60;95.10;;;;;;5070943;28;20455;-43
2022/02/19 06:38:32;;;;;;;5.17;1.83;;;7.60;95.30;;;;;;5070682;28;20473;-43
2022/02/19 06:41:01;;;;;;;5.03;1.63;;;7.60;95.40;;;;;;5070927;28;20424;-44
2022/02/19 06:43:44;;;;;;;6.70;1.60;;;7.50;95.40;;;;;;5071057;28;20517;-44
2022/02/19 06:46:12;;;;;;;2.53;1.60;;;7.60;95.60;;;;;;5070482;28;20470;-44
2022/02/19 06:48:39;;;;;;;4.07;2.53;;;7.60;95.50;;;;;;5070379;28;20449;-42
2022/02/19 06:51:07;;;;;;;3.53;1.40;;;7.60;95.70;;;;;;5072168;28;20415;-43
2022/02/19 06:53:34;;;;;;;6.00;2.70;;;7.60;95.80;;;;;;5070583;28;20504;-43
2022/02/19 06:56:01;;;;;;;4.20;1.50;;;7.70;95.80;;;;;;5070575;28;20473;-43
2022/02/19 06:58:28;;;;;;;4.50;1.50;;;7.60;96.00;;;;;;5071479;28;20400;-44
2022/02/19 07:01:01;;;;;;;3.80;1.30;;;7.60;96.10;;;;;;5067212;28;20453;-45
2022/02/19 07:03:28;;;;;;;4.40;1.40;;;7.60;96.10;;;;;;5050320;28;20504;-43
2022/02/19 07:06:06;;;;;;;4.67;1.20;;;7.60;96.60;;;;;;5050734;28;20470;-43
2022/02/19 07:08:37;;;;;;;4.17;1.33;;;7.60;96.50;;;;;;5050393;28;20963;-42
2022/02/19 07:11:04;;;;;;;3.27;1.83;;;7.60;96.50;;;;;;5050630;28;20972;-43
2022/02/19 07:13:31;;;;;;;4.07;1.30;;;7.60;96.60;;;;;;5050003;28;20558;-43
2022/02/19 07:15:58;;;;;;;2.83;1.43;;;7.60;96.80;;;;;;5050580;28;20819;-42
2022/02/19 07:18:35;;;;;;;3.53;1.10;;;7.60;96.90;;;;;;5049970;28;20446;-42
2022/02/19 07:21:10;;;;;;;4.97;1.67;;;7.60;97.00;;;;;;5050594;28;20475;-45
2022/02/19 07:23:37;;;;;;;3.63;1.40;;;7.70;97.10;;;;;;5049988;28;20570;-43
2022/02/19 07:26:06;;;;;;;3.57;1.37;;;7.70;97.40;;;;;;5050148;28;20432;-41
2022/02/19 07:28:35;;;;;;;3.33;1.53;;;7.70;97.40;;;;;;5049915;28;20465;-42
2022/02/19 07:31:02;;;;;;;1.53;1.17;;;7.70;97.50;;;;;;5050092;28;20568;-41
2022/02/19 07:33:29;;;;;;;4.13;1.60;;;7.70;97.50;;;;;;5053025;28;20461;-43
2022/02/19 07:36:01;;;;;;;5.67;1.30;;;7.70;97.50;;;;;;5070209;28;20453;-42
2022/02/19 07:38:29;;;;;;;4.03;2.10;;;7.70;97.50;;;;;;5069679;28;20430;-43
2022/02/19 07:40:56;;;;;;;5.37;1.77;;;7.70;97.60;;;;;;5070296;28;20452;-43
2022/02/19 07:43:33;;;;;;;6.40;1.53;;;7.50;97.60;;;;;;5069984;28;20834;-43
2022/02/19 07:46:20;;;;;;;3.87;1.43;;;7.80;97.70;;;;;;5070247;28;20457;-43
2022/02/19 08:00:41;;;;;;;3.50;1.80;;;7.90;97.60;;;;;;5066279;28;20416;-42
2022/02/19 08:03:09;;;;;;;4.07;1.70;;;7.90;97.70;;;;;;5049791;28;20437;-43
2022/02/19 08:05:36;;;;;;;3.93;1.57;;;7.90;97.70;;;;;;5049661;28;20537;-42
2022/02/19 08:08:05;;;;;;;8.63;2.43;;;7.90;97.60;;;;;;5049911;28;20457;-41
2022/02/19 08:10:32;;;;;;;5.67;2.03;;;7.90;97.80;;;;;;5049329;28;20463;-42
2022/02/19 08:12:58;;;;;;;2.93;1.63;;;8.00;97.80;;;;;;5050902;28;20458;-43
2022/02/19 08:15:25;;;;;;;3.30;1.20;;;8.00;97.90;;;;;;5051029;28;20902;-42
2022/02/19 08:17:52;;;;;;;4.30;1.87;;;8.10;97.90;;;;;;5051064;28;20427;-43
2022/02/19 08:20:18;;;;;;;3.60;1.60;;;8.00;97.80;;;;;;5051193;28;20798;-42
2022/02/19 08:22:45;;;;;;;3.47;1.20;;;8.10;97.80;;;;;;5050963;28;20450;-42
2022/02/19 08:25:13;;;;;;;5.07;1.23;;;8.10;97.80;;;;;;5053854;28;20626;-44
2022/02/19 08:27:39;;;;;;;2.50;1.43;;;8.10;97.70;;;;;;5054774;28;20438;-43
2022/02/19 08:30:08;;;;;;;4.33;1.33;;;8.10;97.60;;;;;;5052782;28;20462;-45
2022/02/19 08:32:34;;;;;;;4.57;1.50;;;8.10;97.60;;;;;;5052950;28;20792;-44
2022/02/19 08:35:01;;;;;;;5.23;1.17;;;8.00;97.60;;;;;;5070062;28;20450;-43
2022/02/19 08:37:31;;;;;;;2.73;1.10;;;8.10;97.80;;;;;;5074445;28;20445;-42
2022/02/19 08:39:58;;;;;;;10.90;1.87;;;7.90;98.00;;;;;;5074157;28;20400;-41
2022/02/19 08:42:26;;;;;;;6.77;1.80;;;8.00;98.20;;;;;;5074264;28;20957;-43
2022/02/19 08:44:52;;;;;;;3.00;1.40;;;8.00;98.30;;;;;;5072610;28;20452;-44
2022/02/19 08:47:19;;;;;;;3.67;2.13;;;8.00;98.50;;;;;;5073957;28;20416;-43
2022/02/19 08:49:46;;;;;;;3.73;1.50;;;8.00;98.60;;;;;;5073665;28;20489;-42
2022/02/19 08:52:13;;;;;;;2.60;1.10;;;8.00;98.90;;;;;;5073986;28;20404;-45
2022/02/19 08:54:39;;;;;;;2.50;1.20;;;8.00;98.90;;;;;;5073868;28;20408;-43
2022/02/19 08:57:06;;;;;;;3.77;1.70;;;7.90;98.90;;;;;;5073687;28;20468;-44
2022/02/19 08:59:34;;;;;;;3.90;1.60;;;8.00;99.10;;;;;;5073387;28;20881;-43
2022/02/19 09:02:01;;;;;;;10.37;1.77;;;8.00;99.20;;;;;;5073716;28;20423;-43
2022/02/19 09:04:29;;;;;;;3.90;1.60;;;8.00;99.40;;;;;;5073518;28;20912;-42
2022/02/19 09:06:56;;;;;;;5.13;2.47;;;8.10;99.50;;;;;;5073626;28;20420;-42
2022/02/19 09:09:22;;;;;;;3.63;1.90;;;8.10;99.50;;;;;;5073317;28;20832;-41
2022/02/19 09:11:49;;;;;;;5.73;1.63;;;8.20;99.60;;;;;;5073435;28;20437;-46
2022/02/19 09:14:16;;;;;;;4.00;1.80;;;8.20;99.80;;;;;;5073264;28;20441;-42
2022/02/19 09:16:44;;;;;;;3.07;1.50;;;8.20;99.90;;;;;;5073430;28;20408;-42
2022/02/19 09:19:11;;;;;;;4.20;1.60;;;8.20;99.90;;;;;;5072989;28;20434;-41
2022/02/19 09:21:40;;;;;;;4.13;1.40;;;8.10;99.90;;;;;;5073741;28;20436;-42
2022/02/19 09:24:07;;;;;;;3.60;1.80;;;8.20;99.90;;;;;;5073671;28;20435;-43
2022/02/19 09:26:33;;;;;;;2.40;1.30;;;8.20;99.90;;;;;;5073358;28;20454;-45
2022/02/19 09:29:00;;;;;;;6.57;1.70;;;8.20;99.90;;;;;;5072877;28;20436;-42
2022/02/19 09:31:27;;;;;;;3.40;1.60;;;8.20;99.90;;;;;;5072997;28;20473;-44
2022/02/19 09:33:57;;;;;;;7.77;2.00;;;8.10;99.90;;;;;;5073106;28;20482;-43
2022/02/19 09:36:23;;;;;;;9.93;2.53;;;8.10;99.90;;;;;;5073458;28;20429;-41
2022/02/19 09:38:50;;;;;;;3.40;1.63;;;8.00;99.90;;;;;;5072830;28;20456;-44
2022/02/19 09:41:17;;;;;;;4.17;1.70;;;8.00;99.90;;;;;;5073009;28;20429;-44
2022/02/19 09:43:45;;;;;;;6.93;2.30;;;7.90;99.90;;;;;;5072882;28;20472;-41
2022/02/19 09:46:14;;;;;;;5.57;1.87;;;7.90;99.90;;;;;;5072859;28;20945;-43
2022/02/19 09:48:43;;;;;;;8.80;2.23;;;8.00;99.90;;;;;;5072505;28;20920;-44
2022/02/19 09:51:12;;;;;;;6.57;2.50;;;8.00;99.90;;;;;;5072860;28;20810;-45
2022/02/19 09:53:40;;;;;;;9.10;4.37;;;8.20;99.90;;;;;;5073098;28;20453;-43
2022/02/19 09:56:07;;;;;;;5.80;2.37;;;8.20;99.90;;;;;;5072415;28;20424;-43
2022/02/19 09:58:34;;;;;;;6.60;1.90;;;8.20;99.90;;;;;;5070994;28;20444;-41
2022/02/19 10:01:16;;;;;;;6.93;2.93;;;8.20;99.90;;;;;;5072528;28;20442;-43
2022/02/19 10:03:44;;;;;;;5.70;2.30;;;8.20;99.90;;;;;;5072599;28;20427;-45
2022/02/19 10:06:13;;;;;;;15.93;3.00;;;8.30;99.90;;;;;;5072371;28;20430;-44
2022/02/19 10:08:40;;;;;;;9.80;2.90;;;8.30;99.90;;;;;;5071881;28;20408;-43
2022/02/19 10:11:07;;;;;;;4.47;2.53;;;8.40;99.90;;;;;;5072349;28;20574;-43
2022/02/19 10:13:35;;;;;;;9.37;2.33;;;8.50;99.90;;;;;;5072771;28;20452;-42
2022/02/19 10:16:03;;;;;;;6.33;2.40;;;8.50;99.90;;;;;;5072216;28;20411;-43
2022/02/19 10:18:31;;;;;;;4.93;1.70;;;8.30;99.90;;;;;;5072152;28;20407;-43
2022/02/19 10:21:14;;;;;;;5.77;2.30;;;8.50;99.90;;;;;;5072149;28;20437;-41
2022/02/19 10:23:42;;;;;;;5.83;2.93;;;8.50;99.90;;;;;;5070854;28;20477;-42
2022/02/19 10:26:10;;;;;;;10.73;2.30;;;8.60;99.90;;;;;;5072325;28;20429;-44
2022/02/19 10:28:37;;;;;;;4.67;2.33;;;8.60;99.90;;;;;;5071764;28;20926;-43
2022/02/19 10:31:14;;;;;;;6.73;2.30;;;8.60;99.70;;;;;;5071757;28;20560;-44
2022/02/19 10:33:42;;;;;;;8.00;2.87;;;8.60;99.20;;;;;;5072182;28;20440;-43
2022/02/19 10:36:19;;;;;;;8.10;2.03;;;8.60;99.10;;;;;;5071922;28;20438;-45
2022/02/19 10:38:53;;;;;;;6.47;1.97;;;8.50;98.80;;;;;;5071675;28;20444;-42
2022/02/19 10:41:21;;;;;;;7.03;2.00;;;8.60;99.10;;;;;;5071449;28;20408;-42
2022/02/19 10:43:47;;;;;;;8.13;2.00;;;8.70;98.70;;;;;;5072126;28;20452;-45
2022/02/19 10:46:14;;;;;;;11.13;6.33;;;8.80;98.50;;;;;;5072167;28;20411;-45
2022/02/19 10:48:41;;;;;;;8.83;2.97;;;8.90;97.60;;;;;;5071539;28;20748;-45
2022/02/19 10:51:09;;;;;;;7.20;2.23;;;8.90;97.30;;;;;;5072598;28;20457;-46
2022/02/19 10:53:37;;;;;;;4.90;2.10;;;8.90;96.90;;;;;;5072479;28;20452;-45
2022/02/19 10:56:11;;;;;;;5.83;1.90;;;8.90;97.00;;;;;;5072057;28;20486;-46
2022/02/19 10:58:38;;;;;;;7.60;2.10;;;9.00;96.60;;;;;;5072027;28;20976;-44
2022/02/19 11:01:19;;;;;;;8.33;2.10;;;8.90;96.30;;;;;;5071937;28;20420;-46
2022/02/19 11:03:46;;;;;;;6.70;2.30;;;8.90;96.40;;;;;;5071895;28;21018;-46
2022/02/19 11:06:14;;;;;;;10.43;2.50;;;8.90;96.60;;;;;;5071501;28;20981;-46
2022/02/19 11:08:42;;;;;;;9.87;2.70;;;8.90;96.50;;;;;;5071025;28;20430;-46
2022/02/19 11:11:10;;;;;;;7.27;2.17;;;8.90;96.50;;;;;;5072006;28;20525;-44
2022/02/19 11:13:37;;;;;;;6.50;2.50;;;8.80;96.20;;;;;;5072155;28;20446;-46
2022/02/19 11:16:04;;;;;;;10.93;2.50;;;8.80;96.20;;;;;;5072332;28;20783;-46
2022/02/19 11:18:32;;;;;;;8.87;4.47;;;8.90;96.30;;;;;;5071980;28;20430;-46
2022/02/19 11:21:01;;;;;;;7.23;3.00;;;8.90;96.30;;;;;;5072910;28;20913;-45
2022/02/19 11:23:30;;;;;;;6.70;2.53;;;8.90;96.20;;;;;;5072231;28;20776;-45
2022/02/19 11:25:59;;;;;;;7.17;2.37;;;8.70;96.10;;;;;;5072288;28;20438;-44
2022/02/19 11:28:27;;;;;;;12.10;3.10;;;9.10;96.20;;;;;;5072233;28;20444;-44
2022/02/19 11:30:56;;;;;;;6.17;2.30;;;9.10;95.90;;;;;;5072101;28;20510;-44
2022/02/19 11:33:25;;;;;;;6.13;2.37;;;9.00;95.80;;;;;;5071862;28;20428;-44
2022/02/19 11:35:51;;;;;;;4.97;2.30;;;9.20;95.60;;;;;;5071683;28;20441;-45
2022/02/19 11:38:24;;;;;;;10.83;2.53;;;9.30;95.60;;;;;;5071722;28;20415;-46
2022/02/19 11:40:52;;;;;;;7.57;2.80;;;9.40;95.40;;;;;;5071802;28;20981;-45
2022/02/19 11:43:37;;;;;;;5.70;2.40;;;9.50;95.40;;;;;;5071432;28;20490;-46
2022/02/19 11:46:09;;;;;;;9.03;4.50;;;9.50;95.10;;;;;;5071073;28;20437;-46
2022/02/19 11:48:36;;;;;;;9.47;3.93;;;9.50;94.80;;;;;;5071214;28;20438;-45
2022/02/19 11:51:27;;;;;;;5.97;2.20;;;9.40;94.60;;;;;;5071349;28;20489;-46
2022/02/19 11:54:15;;;;;;;3.33;1.73;;;9.40;94.00;;;;;;5056383;28;20502;-46
2022/02/19 11:56:43;;;;;;;8.83;2.63;;;9.50;93.70;;;;;;5070896;28;20453;-46
2022/02/19 11:59:12;;;;;;;9.50;3.87;;;9.50;93.30;;;;;;5071916;28;20434;-46
2022/02/19 12:01:43;;;;;;;11.23;2.47;;;9.50;92.80;;;;;;5075044;28;20448;-46
2022/02/19 12:04:15;;;;;;;8.37;2.40;;;9.50;92.40;;;;;;5075377;28;20424;-47
2022/02/19 12:06:42;;;;;;;9.17;2.50;;;9.50;92.00;;;;;;5074931;28;20413;-45
2022/02/19 12:09:11;;;;;;;4.00;2.20;;;9.50;91.60;;;;;;5074437;28;20412;-45
2022/02/19 12:12:08;;;;;;;6.13;2.10;;;9.50;91.60;;;;;;5074412;28;20448;-45
2022/02/19 12:14:53;;;;;;;9.10;2.83;;;9.60;90.90;;;;;;5074944;28;20464;-46
2022/02/19 12:17:21;;;;;;;7.40;2.10;;;9.60;91.00;;;;;;5074893;28;20408;-46
2022/02/19 12:20:00;;;;;;;8.17;2.80;;;9.60;91.00;;;;;;5074803;28;20445;-45
2022/02/19 12:22:32;;;;;;;11.57;3.73;;;9.60;90.70;;;;;;5074808;28;20451;-46
2022/02/19 12:25:00;;;;;;;10.90;2.40;;;9.50;90.30;;;;;;5074482;28;20419;-44
2022/02/19 12:27:27;;;;;;;7.60;2.37;;;9.40;90.40;;;;;;5074048;28;20469;-45
2022/02/19 12:30:24;;;;;;;11.37;2.60;;;9.50;90.60;;;;;;5073678;28;20498;-44
2022/02/19 12:32:53;;;;;;;9.80;2.67;;;9.50;90.20;;;;;;5074602;28;20456;-44
2022/02/19 12:35:20;;;;;;;5.00;2.60;;;9.60;90.40;;;;;;5074009;28;20408;-45
2022/02/19 12:37:47;;;;;;;4.57;2.33;;;9.60;90.30;;;;;;5073914;28;20793;-47
2022/02/19 12:40:18;;;;;;;5.13;2.03;;;9.60;89.90;;;;;;5074164;28;20494;-45
2022/02/19 12:42:50;;;;;;;7.97;3.00;;;9.60;89.70;;;;;;5074666;28;20477;-44
2022/02/19 12:45:18;;;;;;;7.37;2.00;;;9.60;89.90;;;;;;5073997;28;20529;-45
2022/02/19 12:47:47;;;;;;;7.07;2.67;;;9.70;90.10;;;;;;5074319;28;20412;-44
2022/02/19 12:50:16;;;;;;;6.37;2.80;;;9.70;90.00;;;;;;5074329;28;20432;-46
2022/02/19 12:52:43;;;;;;;12.80;2.33;;;9.80;90.10;;;;;;5073891;28;20516;-45
2022/02/19 12:55:16;;;;;;;7.97;2.27;;;9.80;89.80;;;;;;5074381;28;20547;-45
2022/02/19 12:57:44;;;;;;;7.10;1.70;;;9.80;89.90;;;;;;5074207;28;20437;-48
2022/02/19 13:00:12;;;;;;;9.43;2.57;;;9.90;89.50;;;;;;5073593;28;20475;-46
2022/02/19 13:02:40;;;;;;;4.93;1.90;;;9.90;89.50;;;;;;5073789;28;20473;-46
2022/02/19 13:05:09;;;;;;;8.60;2.10;;;9.90;86.50;;;;;;5073972;28;20511;-45
2022/02/19 13:07:37;;;;;;;6.27;2.87;;;10.00;86.70;;;;;;5073661;28;20876;-46
2022/02/19 13:10:06;;;;;;;5.50;1.90;;;9.90;87.60;;;;;;5072998;28;20444;-44
2022/02/19 13:12:34;;;;;;;5.93;2.17;;;9.90;85.80;;;;;;5073833;28;20460;-45
2022/02/19 13:15:04;;;;;;;7.40;2.10;;;9.80;86.60;;;;;;5074075;28;20448;-44
2022/02/19 13:17:33;;;;;;;9.00;2.03;;;9.80;86.40;;;;;;5072420;28;20450;-45
2022/02/19 13:20:10;;;;;;;8.23;2.40;;;9.70;85.30;;;;;;5073647;28;20423;-43